Форум Города N

Информация о пользователе

Привет, Гость! Войдите или зарегистрируйтесь.


Вы здесь » Форум Города N » Black Metal


Black Metal

Тем 481 страница 536 из 536

Тема Ответов Просмотров Последнее сообщение
0 70 2008-05-08 23:07:47  MoonTemple
0 92 2008-05-08 22:41:24  MoonTemple
1 208 2008-05-08 20:48:30  dying_inside
0 82 2008-05-08 18:49:04  MoonTemple
485 Morok [Pagan Black Metal]  Gloomyrain
6 506 2008-05-08 13:25:58  кезиво
0 83 2008-05-08 00:43:01  MoonTemple
0 97 2008-05-04 08:13:53  MoonTemple
0 118 2008-05-02 22:30:43  MoonTemple
0 86 2008-05-02 00:55:42  MoonTemple
490 Blackwinds [Black Metal]  Gloomyrain
0 76 2008-04-29 20:55:47  Gloomyrain
1 149 2008-04-26 14:13:57  Gloomyrain
492 Bann [Depressive Black]  MoonTemple
3 133 2008-04-26 14:02:29  HA7tur
493 Sorgsvart [Folk Black]  MoonTemple
1 175 2008-04-25 20:15:34  Tony_colpachNIK
3 174 2008-04-24 22:18:17  HA7tur
1 126 2008-04-24 19:10:33  dying_inside
6 335 2008-04-24 12:48:28  Gloomyrain
0 83 2008-04-22 22:49:50  Gloomyrain
498 Malus [Black Metal, deu]  Indiependent
1 106 2008-04-22 07:36:20  Gloomyrain
1 117 2008-04-18 21:38:14  Gloomyrain
2 172 2008-04-17 09:58:42  Neckrion
0 134 2008-04-17 04:20:30  VedmaK
9 335 2008-04-17 03:14:10  VedmaK
0 93 2008-04-16 05:27:08  Erroneous
0 109 2008-04-12 12:09:07  Gloomyrain
0 110 2008-04-11 22:14:36  Prohaar
0 116 2008-04-09 20:48:51  Erroneous
0 185 2008-04-09 20:22:56  Erroneous
6 310 2008-04-09 01:59:04  SatanGab
15 796 2008-04-06 18:55:45  SatanGab
0 115 2008-04-02 12:01:08  Крыс
511 Forsth [Black Metal, che]  Gloomyrain
7 464 2008-04-01 15:22:46  Gloomyrain
0 100 2008-03-28 16:44:46  Крыс
5 490 2008-03-27 21:08:11  Gloomyrain
9 291 2008-03-26 16:52:34  Gloomyrain
3 187 2008-03-19 06:53:27  Gloomyrain
516 Haemoth [Black]  Neckrion
0 109 2008-03-15 13:48:06  Neckrion
0 103 2008-03-14 18:24:10  Gloomyrain
0 97 2008-03-13 10:27:46  Neckrion
2 171 2008-03-06 14:49:38  Gloomyrain
0 99 2008-03-04 17:09:01  Gloomyrain
0 217 2008-02-26 01:50:07  Крыс
522 Necronoclast [Black Metal]  Indiependent
0 131 2008-02-22 22:51:31  Indiependent
4 1020 2008-02-19 20:34:21  Aka_Virr
0 111 2008-02-14 14:50:07  Gloomyrain
3 303 2008-02-13 21:19:57  dying_inside
0 293 2008-02-12 16:55:51  Neckrion
9 794 2008-02-09 05:28:50  DasEinhorn
0 306 2008-02-08 23:13:32  Gloomyrain
2 266 2008-02-08 22:24:17  Gloomyrain
0 394 2008-02-05 19:38:17  Крыс
531 Grimm [folk metal]  Tony_colpachNIK
0 290 2008-02-02 21:29:49  Tony_colpachNIK
7 689 2008-02-02 14:50:46  MaXdi Vampire
0 433 2007-12-31 00:54:00  dying_inside
0 314 2007-12-26 20:25:02  gwar13
1 340 2007-12-21 12:38:30  Gloomyrain
536 Drama [Black Metal, rus]  maggot_corpse
0 765 2007-11-26 23:01:55  maggot_corpse

Вы здесь » Форум Города N » Black Metal


Рейтинг форумов | Создать форум бесплатно